sensor_id;sensor_type;location;lat;lon;timestamp;P1;durP1;ratioP1;P2;durP2;ratioP2
42742;SDS011;28397;44.552;-0.848;2022-07-04T00:01:24;10.52;;;2.30;;
42742;SDS011;28397;44.552;-0.848;2022-07-04T00:03:50;9.10;;;2.42;;
42742;SDS011;28397;44.552;-0.848;2022-07-04T00:06:16;5.80;;;2.15;;
42742;SDS011;28397;44.552;-0.848;2022-07-04T00:08:41;6.70;;;2.30;;
42742;SDS011;28397;44.552;-0.848;2022-07-04T00:11:07;9.30;;;2.38;;
42742;SDS011;28397;44.552;-0.848;2022-07-04T00:13:33;9.48;;;2.25;;
42742;SDS011;28397;44.552;-0.848;2022-07-04T00:15:59;7.65;;;2.20;;
42742;SDS011;28397;44.552;-0.848;2022-07-04T00:18:25;7.97;;;2.42;;
42742;SDS011;28397;44.552;-0.848;2022-07-04T00:20:50;7.72;;;2.60;;
42742;SDS011;28397;44.552;-0.848;2022-07-04T00:23:18;8.00;;;2.25;;
42742;SDS011;28397;44.552;-0.848;2022-07-04T00:25:44;8.32;;;2.13;;
42742;SDS011;28397;44.552;-0.848;2022-07-04T00:28:09;7.70;;;2.50;;
42742;SDS011;28397;44.552;-0.848;2022-07-04T00:30:35;7.50;;;2.20;;
42742;SDS011;28397;44.552;-0.848;2022-07-04T00:33:01;11.80;;;2.65;;
42742;SDS011;28397;44.552;-0.848;2022-07-04T00:35:27;11.50;;;2.50;;
42742;SDS011;28397;44.552;-0.848;2022-07-04T00:37:52;7.30;;;2.50;;
42742;SDS011;28397;44.552;-0.848;2022-07-04T00:40:18;10.15;;;2.60;;
42742;SDS011;28397;44.552;-0.848;2022-07-04T00:42:44;12.05;;;2.63;;
42742;SDS011;28397;44.552;-0.848;2022-07-04T00:45:09;5.00;;;1.95;;
42742;SDS011;28397;44.552;-0.848;2022-07-04T00:47:35;7.32;;;2.28;;
42742;SDS011;28397;44.552;-0.848;2022-07-04T00:50:01;8.23;;;2.30;;
42742;SDS011;28397;44.552;-0.848;2022-07-04T00:52:27;10.00;;;2.40;;
42742;SDS011;28397;44.552;-0.848;2022-07-04T00:54:53;11.00;;;2.40;;
42742;SDS011;28397;44.552;-0.848;2022-07-04T00:57:19;7.03;;;2.33;;
42742;SDS011;28397;44.552;-0.848;2022-07-04T00:59:45;7.03;;;2.33;;
42742;SDS011;28397;44.552;-0.848;2022-07-04T01:02:11;7.22;;;2.45;;
42742;SDS011;28397;44.552;-0.848;2022-07-04T01:04:36;9.10;;;2.55;;
42742;SDS011;28397;44.552;-0.848;2022-07-04T01:07:02;10.02;;;2.58;;
42742;SDS011;28397;44.552;-0.848;2022-07-04T01:09:29;12.07;;;2.67;;
42742;SDS011;28397;44.552;-0.848;2022-07-04T01:11:55;7.55;;;2.65;;
42742;SDS011;28397;44.552;-0.848;2022-07-04T01:14:21;8.30;;;2.90;;
42742;SDS011;28397;44.552;-0.848;2022-07-04T01:16:46;10.20;;;2.63;;
42742;SDS011;28397;44.552;-0.848;2022-07-04T01:19:12;10.70;;;2.92;;
42742;SDS011;28397;44.552;-0.848;2022-07-04T01:21:38;11.35;;;2.85;;
42742;SDS011;28397;44.552;-0.848;2022-07-04T01:24:04;10.13;;;2.83;;
42742;SDS011;28397;44.552;-0.848;2022-07-04T01:26:30;5.18;;;2.60;;
42742;SDS011;28397;44.552;-0.848;2022-07-04T01:28:56;11.52;;;2.58;;
42742;SDS011;28397;44.552;-0.848;2022-07-04T01:31:22;9.63;;;3.03;;
42742;SDS011;28397;44.552;-0.848;2022-07-04T01:33:47;11.13;;;2.95;;
42742;SDS011;28397;44.552;-0.848;2022-07-04T01:36:13;9.77;;;2.80;;
42742;SDS011;28397;44.552;-0.848;2022-07-04T01:38:39;8.73;;;3.22;;
42742;SDS011;28397;44.552;-0.848;2022-07-04T01:41:04;12.25;;;3.03;;
42742;SDS011;28397;44.552;-0.848;2022-07-04T01:43:30;12.15;;;2.92;;
42742;SDS011;28397;44.552;-0.848;2022-07-04T01:45:56;8.73;;;3.15;;
42742;SDS011;28397;44.552;-0.848;2022-07-04T01:48:21;13.95;;;3.65;;
42742;SDS011;28397;44.552;-0.848;2022-07-04T01:50:47;12.02;;;2.92;;
42742;SDS011;28397;44.552;-0.848;2022-07-04T01:53:13;11.25;;;3.20;;
42742;SDS011;28397;44.552;-0.848;2022-07-04T01:55:38;12.13;;;3.20;;
42742;SDS011;28397;44.552;-0.848;2022-07-04T01:58:04;9.18;;;2.95;;
42742;SDS011;28397;44.552;-0.848;2022-07-04T02:00:30;13.40;;;3.30;;
42742;SDS011;28397;44.552;-0.848;2022-07-04T02:03:14;11.55;;;3.00;;
42742;SDS011;28397;44.552;-0.848;2022-07-04T02:05:40;12.23;;;3.45;;
42742;SDS011;28397;44.552;-0.848;2022-07-04T02:08:07;12.90;;;3.15;;
42742;SDS011;28397;44.552;-0.848;2022-07-04T02:10:33;13.50;;;3.15;;
42742;SDS011;28397;44.552;-0.848;2022-07-04T02:13:00;10.13;;;3.10;;
42742;SDS011;28397;44.552;-0.848;2022-07-04T02:15:36;14.55;;;3.40;;
42742;SDS011;28397;44.552;-0.848;2022-07-04T02:18:04;14.60;;;3.60;;
42742;SDS011;28397;44.552;-0.848;2022-07-04T02:20:31;15.38;;;3.30;;
42742;SDS011;28397;44.552;-0.848;2022-07-04T02:22:57;11.45;;;3.17;;
42742;SDS011;28397;44.552;-0.848;2022-07-04T02:25:24;10.15;;;3.60;;
42742;SDS011;28397;44.552;-0.848;2022-07-04T02:27:49;11.30;;;3.40;;
42742;SDS011;28397;44.552;-0.848;2022-07-04T02:30:15;15.25;;;3.80;;
42742;SDS011;28397;44.552;-0.848;2022-07-04T02:32:41;12.65;;;3.10;;
42742;SDS011;28397;44.552;-0.848;2022-07-04T02:35:08;10.90;;;3.10;;
42742;SDS011;28397;44.552;-0.848;2022-07-04T02:37:34;12.55;;;3.58;;
42742;SDS011;28397;44.552;-0.848;2022-07-04T02:40:00;12.98;;;3.28;;
42742;SDS011;28397;44.552;-0.848;2022-07-04T02:42:29;12.32;;;3.60;;
42742;SDS011;28397;44.552;-0.848;2022-07-04T02:44:56;13.50;;;3.25;;
42742;SDS011;28397;44.552;-0.848;2022-07-04T02:47:22;13.15;;;3.63;;
42742;SDS011;28397;44.552;-0.848;2022-07-04T02:49:47;14.70;;;3.33;;
42742;SDS011;28397;44.552;-0.848;2022-07-04T02:52:13;12.23;;;3.10;;
42742;SDS011;28397;44.552;-0.848;2022-07-04T02:54:39;12.35;;;3.63;;
42742;SDS011;28397;44.552;-0.848;2022-07-04T02:57:04;14.38;;;3.50;;
42742;SDS011;28397;44.552;-0.848;2022-07-04T02:59:30;13.27;;;3.70;;
42742;SDS011;28397;44.552;-0.848;2022-07-04T03:01:56;11.43;;;3.20;;
42742;SDS011;28397;44.552;-0.848;2022-07-04T03:04:22;13.57;;;3.20;;
42742;SDS011;28397;44.552;-0.848;2022-07-04T03:06:48;13.52;;;3.33;;
42742;SDS011;28397;44.552;-0.848;2022-07-04T03:09:13;10.38;;;3.03;;
42742;SDS011;28397;44.552;-0.848;2022-07-04T03:11:39;11.40;;;3.25;;
42742;SDS011;28397;44.552;-0.848;2022-07-04T03:14:05;12.15;;;3.47;;
42742;SDS011;28397;44.552;-0.848;2022-07-04T03:16:30;10.77;;;3.20;;
42742;SDS011;28397;44.552;-0.848;2022-07-04T03:18:56;17.67;;;3.55;;
42742;SDS011;28397;44.552;-0.848;2022-07-04T03:21:22;17.90;;;3.78;;
42742;SDS011;28397;44.552;-0.848;2022-07-04T03:23:47;15.93;;;3.80;;
42742;SDS011;28397;44.552;-0.848;2022-07-04T03:26:25;16.63;;;4.00;;
42742;SDS011;28397;44.552;-0.848;2022-07-04T03:28:53;18.90;;;4.15;;
42742;SDS011;28397;44.552;-0.848;2022-07-04T03:31:18;15.25;;;4.22;;
42742;SDS011;28397;44.552;-0.848;2022-07-04T03:33:44;13.13;;;3.80;;
42742;SDS011;28397;44.552;-0.848;2022-07-04T03:36:10;15.68;;;3.83;;
42742;SDS011;28397;44.552;-0.848;2022-07-04T03:38:36;15.52;;;4.13;;
42742;SDS011;28397;44.552;-0.848;2022-07-04T03:41:02;17.13;;;4.25;;
42742;SDS011;28397;44.552;-0.848;2022-07-04T03:43:28;10.10;;;3.22;;
42742;SDS011;28397;44.552;-0.848;2022-07-04T03:45:53;12.57;;;3.90;;
42742;SDS011;28397;44.552;-0.848;2022-07-04T03:48:19;11.00;;;3.50;;
42742;SDS011;28397;44.552;-0.848;2022-07-04T03:50:45;12.35;;;3.47;;
42742;SDS011;28397;44.552;-0.848;2022-07-04T03:53:11;11.15;;;3.17;;
42742;SDS011;28397;44.552;-0.848;2022-07-04T03:55:37;14.65;;;4.32;;
42742;SDS011;28397;44.552;-0.848;2022-07-04T03:58:04;9.48;;;3.60;;
42742;SDS011;28397;44.552;-0.848;2022-07-04T04:00:30;16.27;;;3.45;;
42742;SDS011;28397;44.552;-0.848;2022-07-04T04:02:56;12.93;;;3.78;;
42742;SDS011;28397;44.552;-0.848;2022-07-04T04:05:23;12.73;;;3.97;;
42742;SDS011;28397;44.552;-0.848;2022-07-04T04:08:00;13.85;;;3.80;;
42742;SDS011;28397;44.552;-0.848;2022-07-04T04:10:27;14.73;;;3.90;;
42742;SDS011;28397;44.552;-0.848;2022-07-04T04:12:56;14.30;;;3.83;;
42742;SDS011;28397;44.552;-0.848;2022-07-04T04:15:22;14.07;;;4.10;;
42742;SDS011;28397;44.552;-0.848;2022-07-04T04:17:48;11.07;;;3.50;;
42742;SDS011;28397;44.552;-0.848;2022-07-04T04:20:14;14.38;;;4.05;;
42742;SDS011;28397;44.552;-0.848;2022-07-04T04:22:40;13.15;;;3.80;;
42742;SDS011;28397;44.552;-0.848;2022-07-04T04:25:06;12.90;;;3.50;;
42742;SDS011;28397;44.552;-0.848;2022-07-04T04:27:32;18.30;;;4.55;;
42742;SDS011;28397;44.552;-0.848;2022-07-04T04:29:58;15.45;;;4.40;;
42742;SDS011;28397;44.552;-0.848;2022-07-04T04:32:24;11.25;;;3.97;;
42742;SDS011;28397;44.552;-0.848;2022-07-04T04:34:49;16.23;;;4.22;;
42742;SDS011;28397;44.552;-0.848;2022-07-04T04:37:15;16.98;;;4.53;;
42742;SDS011;28397;44.552;-0.848;2022-07-04T04:39:41;14.88;;;6.20;;
42742;SDS011;28397;44.552;-0.848;2022-07-04T04:42:07;32.13;;;25.65;;
42742;SDS011;28397;44.552;-0.848;2022-07-04T04:44:32;20.02;;;12.60;;
42742;SDS011;28397;44.552;-0.848;2022-07-04T04:46:58;17.90;;;5.70;;
42742;SDS011;28397;44.552;-0.848;2022-07-04T04:49:24;17.23;;;5.03;;
42742;SDS011;28397;44.552;-0.848;2022-07-04T04:51:49;17.33;;;4.75;;
42742;SDS011;28397;44.552;-0.848;2022-07-04T04:54:15;13.65;;;4.72;;
42742;SDS011;28397;44.552;-0.848;2022-07-04T04:56:41;17.08;;;4.57;;
42742;SDS011;28397;44.552;-0.848;2022-07-04T04:59:07;10.52;;;4.32;;
42742;SDS011;28397;44.552;-0.848;2022-07-04T05:01:33;14.02;;;4.35;;
42742;SDS011;28397;44.552;-0.848;2022-07-04T05:03:59;14.27;;;4.40;;
42742;SDS011;28397;44.552;-0.848;2022-07-04T05:06:25;15.98;;;4.70;;
42742;SDS011;28397;44.552;-0.848;2022-07-04T05:08:51;16.30;;;4.25;;
42742;SDS011;28397;44.552;-0.848;2022-07-04T05:11:16;19.38;;;4.55;;
42742;SDS011;28397;44.552;-0.848;2022-07-04T05:13:42;17.70;;;4.30;;
42742;SDS011;28397;44.552;-0.848;2022-07-04T05:16:08;17.60;;;4.57;;
42742;SDS011;28397;44.552;-0.848;2022-07-04T05:18:33;15.88;;;4.78;;
42742;SDS011;28397;44.552;-0.848;2022-07-04T05:20:59;12.60;;;4.35;;
42742;SDS011;28397;44.552;-0.848;2022-07-04T05:23:25;14.23;;;4.50;;
42742;SDS011;28397;44.552;-0.848;2022-07-04T05:25:51;12.55;;;4.22;;
42742;SDS011;28397;44.552;-0.848;2022-07-04T05:28:16;16.85;;;4.15;;
42742;SDS011;28397;44.552;-0.848;2022-07-04T05:30:42;16.95;;;4.28;;
42742;SDS011;28397;44.552;-0.848;2022-07-04T05:33:08;16.00;;;4.70;;
42742;SDS011;28397;44.552;-0.848;2022-07-04T05:35:34;13.25;;;4.03;;
42742;SDS011;28397;44.552;-0.848;2022-07-04T05:38:01;8.20;;;3.60;;
42742;SDS011;28397;44.552;-0.848;2022-07-04T05:40:26;15.57;;;4.25;;
42742;SDS011;28397;44.552;-0.848;2022-07-04T05:42:52;13.63;;;4.43;;
42742;SDS011;28397;44.552;-0.848;2022-07-04T05:45:18;17.27;;;4.25;;
42742;SDS011;28397;44.552;-0.848;2022-07-04T05:47:43;11.95;;;4.15;;
42742;SDS011;28397;44.552;-0.848;2022-07-04T05:50:09;12.38;;;4.10;;
42742;SDS011;28397;44.552;-0.848;2022-07-04T05:52:35;15.10;;;4.43;;
42742;SDS011;28397;44.552;-0.848;2022-07-04T05:55:01;17.80;;;4.72;;
42742;SDS011;28397;44.552;-0.848;2022-07-04T05:57:27;15.05;;;4.25;;
42742;SDS011;28397;44.552;-0.848;2022-07-04T05:59:53;15.13;;;4.22;;
42742;SDS011;28397;44.552;-0.848;2022-07-04T06:02:19;9.68;;;3.50;;
42742;SDS011;28397;44.552;-0.848;2022-07-04T06:04:44;12.98;;;4.30;;
42742;SDS011;28397;44.552;-0.848;2022-07-04T06:07:10;13.30;;;4.25;;
42742;SDS011;28397;44.552;-0.848;2022-07-04T06:09:36;16.77;;;4.30;;
42742;SDS011;28397;44.552;-0.848;2022-07-04T06:12:03;12.15;;;4.28;;
42742;SDS011;28397;44.552;-0.848;2022-07-04T06:14:29;16.63;;;4.63;;
42742;SDS011;28397;44.552;-0.848;2022-07-04T06:16:55;15.45;;;4.80;;
42742;SDS011;28397;44.552;-0.848;2022-07-04T06:19:20;13.45;;;4.60;;
42742;SDS011;28397;44.552;-0.848;2022-07-04T06:21:46;17.98;;;4.88;;
42742;SDS011;28397;44.552;-0.848;2022-07-04T06:24:12;13.88;;;4.15;;
42742;SDS011;28397;44.552;-0.848;2022-07-04T06:26:38;14.10;;;4.75;;
42742;SDS011;28397;44.552;-0.848;2022-07-04T06:29:04;16.10;;;4.82;;
42742;SDS011;28397;44.552;-0.848;2022-07-04T06:31:29;13.82;;;4.45;;
42742;SDS011;28397;44.552;-0.848;2022-07-04T06:33:55;18.55;;;4.43;;
42742;SDS011;28397;44.552;-0.848;2022-07-04T06:36:39;16.88;;;4.65;;
42742;SDS011;28397;44.552;-0.848;2022-07-04T06:39:05;17.73;;;4.78;;
42742;SDS011;28397;44.552;-0.848;2022-07-04T06:41:31;19.67;;;4.97;;
42742;SDS011;28397;44.552;-0.848;2022-07-04T06:43:56;14.95;;;5.43;;
42742;SDS011;28397;44.552;-0.848;2022-07-04T06:46:22;20.90;;;5.45;;
42742;SDS011;28397;44.552;-0.848;2022-07-04T06:48:48;19.00;;;5.45;;
42742;SDS011;28397;44.552;-0.848;2022-07-04T06:51:14;14.65;;;5.28;;
42742;SDS011;28397;44.552;-0.848;2022-07-04T06:53:42;17.15;;;4.95;;
42742;SDS011;28397;44.552;-0.848;2022-07-04T06:56:10;18.83;;;4.47;;
42742;SDS011;28397;44.552;-0.848;2022-07-04T06:58:36;11.80;;;4.40;;
42742;SDS011;28397;44.552;-0.848;2022-07-04T07:01:02;14.88;;;4.07;;
42742;SDS011;28397;44.552;-0.848;2022-07-04T07:03:28;13.45;;;4.18;;
42742;SDS011;28397;44.552;-0.848;2022-07-04T07:05:54;18.27;;;4.15;;
42742;SDS011;28397;44.552;-0.848;2022-07-04T07:08:21;10.73;;;3.78;;
42742;SDS011;28397;44.552;-0.848;2022-07-04T07:10:47;13.93;;;3.80;;
42742;SDS011;28397;44.552;-0.848;2022-07-04T07:13:13;11.50;;;4.00;;
42742;SDS011;28397;44.552;-0.848;2022-07-04T07:15:39;16.48;;;3.83;;
42742;SDS011;28397;44.552;-0.848;2022-07-04T07:18:05;13.57;;;3.67;;
42742;SDS011;28397;44.552;-0.848;2022-07-04T07:20:32;11.05;;;3.70;;
42742;SDS011;28397;44.552;-0.848;2022-07-04T07:22:58;12.95;;;3.58;;
42742;SDS011;28397;44.552;-0.848;2022-07-04T07:25:26;12.88;;;3.80;;
42742;SDS011;28397;44.552;-0.848;2022-07-04T07:27:52;12.07;;;3.70;;
42742;SDS011;28397;44.552;-0.848;2022-07-04T07:30:17;10.13;;;3.20;;
42742;SDS011;28397;44.552;-0.848;2022-07-04T07:32:43;12.90;;;3.00;;
42742;SDS011;28397;44.552;-0.848;2022-07-04T07:35:09;11.05;;;3.60;;
42742;SDS011;28397;44.552;-0.848;2022-07-04T07:37:34;11.30;;;3.47;;
42742;SDS011;28397;44.552;-0.848;2022-07-04T07:40:01;12.18;;;4.00;;
42742;SDS011;28397;44.552;-0.848;2022-07-04T07:42:27;13.63;;;3.92;;
42742;SDS011;28397;44.552;-0.848;2022-07-04T07:44:53;14.55;;;4.03;;
42742;SDS011;28397;44.552;-0.848;2022-07-04T07:47:18;12.27;;;3.47;;
42742;SDS011;28397;44.552;-0.848;2022-07-04T07:49:44;7.65;;;2.80;;
42742;SDS011;28397;44.552;-0.848;2022-07-04T07:52:12;9.88;;;2.88;;
42742;SDS011;28397;44.552;-0.848;2022-07-04T07:54:39;11.55;;;3.10;;
42742;SDS011;28397;44.552;-0.848;2022-07-04T07:57:05;7.78;;;2.70;;
42742;SDS011;28397;44.552;-0.848;2022-07-04T07:59:31;10.82;;;2.72;;
42742;SDS011;28397;44.552;-0.848;2022-07-04T08:01:56;8.88;;;2.90;;
42742;SDS011;28397;44.552;-0.848;2022-07-04T08:04:22;9.98;;;2.85;;
42742;SDS011;28397;44.552;-0.848;2022-07-04T08:07:10;14.05;;;2.97;;
42742;SDS011;28397;44.552;-0.848;2022-07-04T08:09:37;8.77;;;2.70;;
42742;SDS011;28397;44.552;-0.848;2022-07-04T08:12:04;9.18;;;3.17;;
42742;SDS011;28397;44.552;-0.848;2022-07-04T08:14:31;11.63;;;2.90;;
42742;SDS011;28397;44.552;-0.848;2022-07-04T08:17:00;11.00;;;2.70;;
42742;SDS011;28397;44.552;-0.848;2022-07-04T08:19:26;6.20;;;2.38;;
42742;SDS011;28397;44.552;-0.848;2022-07-04T08:21:53;9.10;;;3.00;;
42742;SDS011;28397;44.552;-0.848;2022-07-04T08:24:19;9.55;;;3.15;;
42742;SDS011;28397;44.552;-0.848;2022-07-04T08:26:45;8.38;;;2.38;;
42742;SDS011;28397;44.552;-0.848;2022-07-04T08:29:11;12.43;;;3.15;;
42742;SDS011;28397;44.552;-0.848;2022-07-04T08:31:36;6.45;;;2.53;;
42742;SDS011;28397;44.552;-0.848;2022-07-04T08:34:02;9.93;;;2.90;;
42742;SDS011;28397;44.552;-0.848;2022-07-04T08:36:28;9.65;;;2.78;;
42742;SDS011;28397;44.552;-0.848;2022-07-04T08:38:54;8.25;;;2.70;;
42742;SDS011;28397;44.552;-0.848;2022-07-04T08:41:20;9.10;;;2.92;;
42742;SDS011;28397;44.552;-0.848;2022-07-04T08:43:46;8.88;;;2.78;;
42742;SDS011;28397;44.552;-0.848;2022-07-04T08:46:12;8.77;;;2.63;;
42742;SDS011;28397;44.552;-0.848;2022-07-04T08:48:40;10.35;;;2.35;;
42742;SDS011;28397;44.552;-0.848;2022-07-04T08:53:37;8.63;;;2.72;;
42742;SDS011;28397;44.552;-0.848;2022-07-04T08:56:06;10.38;;;2.80;;
42742;SDS011;28397;44.552;-0.848;2022-07-04T08:58:51;12.90;;;2.85;;
42742;SDS011;28397;44.552;-0.848;2022-07-04T09:01:20;7.15;;;2.38;;
42742;SDS011;28397;44.552;-0.848;2022-07-04T09:03:46;6.97;;;2.63;;
42742;SDS011;28397;44.552;-0.848;2022-07-04T09:06:14;10.40;;;2.67;;
42742;SDS011;28397;44.552;-0.848;2022-07-04T09:08:40;8.25;;;2.70;;
42742;SDS011;28397;44.552;-0.848;2022-07-04T09:11:07;7.28;;;2.00;;
42742;SDS011;28397;44.552;-0.848;2022-07-04T09:13:33;7.90;;;2.30;;
42742;SDS011;28397;44.552;-0.848;2022-07-04T09:16:00;7.85;;;2.50;;
42742;SDS011;28397;44.552;-0.848;2022-07-04T09:18:31;12.85;;;3.10;;
42742;SDS011;28397;44.552;-0.848;2022-07-04T09:20:59;10.40;;;2.78;;
42742;SDS011;28397;44.552;-0.848;2022-07-04T09:23:31;9.15;;;2.80;;
42742;SDS011;28397;44.552;-0.848;2022-07-04T09:26:12;9.50;;;3.20;;
42742;SDS011;28397;44.552;-0.848;2022-07-04T09:28:44;11.52;;;3.08;;
42742;SDS011;28397;44.552;-0.848;2022-07-04T09:31:36;6.07;;;2.22;;
42742;SDS011;28397;44.552;-0.848;2022-07-04T09:34:03;8.98;;;2.70;;
42742;SDS011;28397;44.552;-0.848;2022-07-04T09:36:31;9.25;;;2.63;;
42742;SDS011;28397;44.552;-0.848;2022-07-04T09:41:52;8.35;;;2.55;;
42742;SDS011;28397;44.552;-0.848;2022-07-04T09:44:23;8.90;;;2.95;;
42742;SDS011;28397;44.552;-0.848;2022-07-04T09:46:51;10.63;;;2.78;;
42742;SDS011;28397;44.552;-0.848;2022-07-04T09:49:18;8.93;;;2.60;;
42742;SDS011;28397;44.552;-0.848;2022-07-04T09:51:45;8.93;;;2.45;;
42742;SDS011;28397;44.552;-0.848;2022-07-04T09:54:16;7.03;;;2.30;;
42742;SDS011;28397;44.552;-0.848;2022-07-04T09:56:51;7.53;;;2.63;;
42742;SDS011;28397;44.552;-0.848;2022-07-04T09:59:19;9.93;;;2.95;;
42742;SDS011;28397;44.552;-0.848;2022-07-04T10:01:46;8.65;;;2.72;;
42742;SDS011;28397;44.552;-0.848;2022-07-04T10:04:12;9.85;;;2.90;;
42742;SDS011;28397;44.552;-0.848;2022-07-04T10:06:41;8.60;;;2.58;;
42742;SDS011;28397;44.552;-0.848;2022-07-04T10:09:12;9.40;;;2.75;;
42742;SDS011;28397;44.552;-0.848;2022-07-04T10:11:43;10.70;;;2.38;;
42742;SDS011;28397;44.552;-0.848;2022-07-04T10:14:11;8.13;;;2.55;;
42742;SDS011;28397;44.552;-0.848;2022-07-04T10:16:38;9.77;;;2.67;;
42742;SDS011;28397;44.552;-0.848;2022-07-04T10:19:08;7.28;;;3.00;;
42742;SDS011;28397;44.552;-0.848;2022-07-04T10:21:35;7.80;;;2.38;;
42742;SDS011;28397;44.552;-0.848;2022-07-04T10:24:01;11.05;;;2.67;;
42742;SDS011;28397;44.552;-0.848;2022-07-04T10:26:28;11.55;;;3.30;;
42742;SDS011;28397;44.552;-0.848;2022-07-04T10:28:55;6.25;;;2.25;;
42742;SDS011;28397;44.552;-0.848;2022-07-04T10:31:23;6.15;;;2.30;;
42742;SDS011;28397;44.552;-0.848;2022-07-04T10:33:50;9.68;;;2.42;;
42742;SDS011;28397;44.552;-0.848;2022-07-04T10:36:20;5.78;;;2.00;;
42742;SDS011;28397;44.552;-0.848;2022-07-04T10:38:51;10.25;;;2.78;;
42742;SDS011;28397;44.552;-0.848;2022-07-04T10:41:19;6.65;;;2.35;;
42742;SDS011;28397;44.552;-0.848;2022-07-04T10:44:00;8.98;;;2.40;;
42742;SDS011;28397;44.552;-0.848;2022-07-04T10:46:27;6.18;;;2.38;;
42742;SDS011;28397;44.552;-0.848;2022-07-04T10:49:03;10.80;;;2.78;;
42742;SDS011;28397;44.552;-0.848;2022-07-04T10:51:48;8.43;;;2.20;;
42742;SDS011;28397;44.552;-0.848;2022-07-04T10:56:56;6.65;;;2.10;;
42742;SDS011;28397;44.552;-0.848;2022-07-04T10:59:35;8.55;;;2.85;;
42742;SDS011;28397;44.552;-0.848;2022-07-04T11:05:14;9.70;;;2.63;;
42742;SDS011;28397;44.552;-0.848;2022-07-04T11:07:55;7.97;;;2.30;;
42742;SDS011;28397;44.552;-0.848;2022-07-04T11:17:57;9.10;;;2.60;;
42742;SDS011;28397;44.552;-0.848;2022-07-04T11:20:27;9.27;;;2.33;;
42742;SDS011;28397;44.552;-0.848;2022-07-04T11:23:09;9.35;;;2.22;;
42742;SDS011;28397;44.552;-0.848;2022-07-04T11:25:37;6.00;;;2.10;;
42742;SDS011;28397;44.552;-0.848;2022-07-04T11:28:23;8.23;;;2.47;;
42742;SDS011;28397;44.552;-0.848;2022-07-04T11:33:28;7.22;;;2.08;;
42742;SDS011;28397;44.552;-0.848;2022-07-04T11:36:11;7.38;;;2.40;;
42742;SDS011;28397;44.552;-0.848;2022-07-04T11:41:11;8.60;;;2.22;;
42742;SDS011;28397;44.552;-0.848;2022-07-04T11:43:56;11.27;;;2.47;;
42742;SDS011;28397;44.552;-0.848;2022-07-04T11:46:40;7.45;;;2.35;;
42742;SDS011;28397;44.552;-0.848;2022-07-04T11:49:09;7.32;;;2.63;;
42742;SDS011;28397;44.552;-0.848;2022-07-04T11:51:40;7.50;;;2.20;;
42742;SDS011;28397;44.552;-0.848;2022-07-04T11:54:07;8.07;;;2.30;;
42742;SDS011;28397;44.552;-0.848;2022-07-04T11:56:33;7.90;;;2.58;;
42742;SDS011;28397;44.552;-0.848;2022-07-04T11:59:08;7.93;;;2.33;;
42742;SDS011;28397;44.552;-0.848;2022-07-04T12:01:41;9.50;;;2.70;;
42742;SDS011;28397;44.552;-0.848;2022-07-04T12:04:14;5.15;;;2.40;;
42742;SDS011;28397;44.552;-0.848;2022-07-04T12:06:42;8.25;;;2.83;;
42742;SDS011;28397;44.552;-0.848;2022-07-04T12:09:09;6.82;;;2.72;;
42742;SDS011;28397;44.552;-0.848;2022-07-04T12:11:51;6.28;;;2.30;;
42742;SDS011;28397;44.552;-0.848;2022-07-04T12:14:18;8.68;;;2.70;;
42742;SDS011;28397;44.552;-0.848;2022-07-04T12:16:44;6.13;;;2.03;;
42742;SDS011;28397;44.552;-0.848;2022-07-04T12:19:12;5.63;;;2.38;;
42742;SDS011;28397;44.552;-0.848;2022-07-04T12:21:38;7.60;;;2.58;;
42742;SDS011;28397;44.552;-0.848;2022-07-04T12:24:04;7.65;;;2.90;;
42742;SDS011;28397;44.552;-0.848;2022-07-04T12:26:33;7.88;;;2.45;;
42742;SDS011;28397;44.552;-0.848;2022-07-04T12:29:00;6.00;;;2.45;;
42742;SDS011;28397;44.552;-0.848;2022-07-04T12:31:39;8.93;;;2.50;;
42742;SDS011;28397;44.552;-0.848;2022-07-04T12:34:16;9.27;;;2.65;;
42742;SDS011;28397;44.552;-0.848;2022-07-04T12:36:52;9.63;;;2.85;;
42742;SDS011;28397;44.552;-0.848;2022-07-04T12:39:28;7.30;;;2.75;;
42742;SDS011;28397;44.552;-0.848;2022-07-04T12:42:07;6.30;;;2.70;;
42742;SDS011;28397;44.552;-0.848;2022-07-04T12:44:37;7.18;;;2.60;;
42742;SDS011;28397;44.552;-0.848;2022-07-04T12:47:04;6.43;;;2.60;;
42742;SDS011;28397;44.552;-0.848;2022-07-04T12:49:31;5.43;;;2.70;;
42742;SDS011;28397;44.552;-0.848;2022-07-04T12:52:10;6.03;;;2.85;;
42742;SDS011;28397;44.552;-0.848;2022-07-04T12:54:42;4.07;;;2.25;;
42742;SDS011;28397;44.552;-0.848;2022-07-04T12:57:15;5.47;;;2.67;;
42742;SDS011;28397;44.552;-0.848;2022-07-04T12:59:43;6.63;;;2.95;;
42742;SDS011;28397;44.552;-0.848;2022-07-04T13:02:09;9.13;;;2.55;;
42742;SDS011;28397;44.552;-0.848;2022-07-04T13:04:37;5.10;;;2.50;;
42742;SDS011;28397;44.552;-0.848;2022-07-04T13:07:13;8.27;;;2.80;;
42742;SDS011;28397;44.552;-0.848;2022-07-04T13:09:41;6.15;;;2.80;;
42742;SDS011;28397;44.552;-0.848;2022-07-04T13:12:09;5.30;;;2.60;;
42742;SDS011;28397;44.552;-0.848;2022-07-04T13:14:50;7.88;;;2.70;;
42742;SDS011;28397;44.552;-0.848;2022-07-04T13:17:17;5.50;;;2.60;;
42742;SDS011;28397;44.552;-0.848;2022-07-04T13:19:43;6.97;;;2.50;;
42742;SDS011;28397;44.552;-0.848;2022-07-04T13:22:09;3.70;;;1.85;;
42742;SDS011;28397;44.552;-0.848;2022-07-04T13:24:35;9.20;;;2.53;;
42742;SDS011;28397;44.552;-0.848;2022-07-04T13:27:00;6.18;;;2.40;;
42742;SDS011;28397;44.552;-0.848;2022-07-04T13:29:26;6.53;;;2.33;;
42742;SDS011;28397;44.552;-0.848;2022-07-04T13:31:52;5.22;;;2.05;;
42742;SDS011;28397;44.552;-0.848;2022-07-04T13:34:18;4.32;;;1.90;;
42742;SDS011;28397;44.552;-0.848;2022-07-04T13:36:44;4.00;;;1.63;;
42742;SDS011;28397;44.552;-0.848;2022-07-04T13:39:10;4.68;;;1.52;;
42742;SDS011;28397;44.552;-0.848;2022-07-04T13:41:36;4.72;;;1.50;;
42742;SDS011;28397;44.552;-0.848;2022-07-04T13:44:04;6.38;;;2.00;;
42742;SDS011;28397;44.552;-0.848;2022-07-04T13:46:31;4.40;;;2.00;;
42742;SDS011;28397;44.552;-0.848;2022-07-04T13:49:00;4.68;;;2.00;;
42742;SDS011;28397;44.552;-0.848;2022-07-04T13:51:27;3.58;;;1.90;;
42742;SDS011;28397;44.552;-0.848;2022-07-04T13:53:53;4.57;;;1.98;;
42742;SDS011;28397;44.552;-0.848;2022-07-04T13:56:18;2.85;;;1.70;;
42742;SDS011;28397;44.552;-0.848;2022-07-04T13:58:45;4.07;;;1.58;;
42742;SDS011;28397;44.552;-0.848;2022-07-04T14:01:12;4.32;;;1.80;;
42742;SDS011;28397;44.552;-0.848;2022-07-04T14:03:40;5.18;;;1.80;;
42742;SDS011;28397;44.552;-0.848;2022-07-04T14:06:07;4.25;;;1.67;;
42742;SDS011;28397;44.552;-0.848;2022-07-04T14:08:33;2.45;;;1.52;;
42742;SDS011;28397;44.552;-0.848;2022-07-04T14:10:59;3.10;;;1.70;;
42742;SDS011;28397;44.552;-0.848;2022-07-04T14:13:25;3.08;;;1.60;;
42742;SDS011;28397;44.552;-0.848;2022-07-04T14:15:51;3.03;;;1.50;;
42742;SDS011;28397;44.552;-0.848;2022-07-04T14:18:17;2.60;;;1.60;;
42742;SDS011;28397;44.552;-0.848;2022-07-04T14:20:42;2.22;;;1.50;;
42742;SDS011;28397;44.552;-0.848;2022-07-04T14:23:08;5.63;;;1.92;;
42742;SDS011;28397;44.552;-0.848;2022-07-04T14:25:34;4.07;;;1.70;;
42742;SDS011;28397;44.552;-0.848;2022-07-04T14:28:00;3.90;;;1.92;;
42742;SDS011;28397;44.552;-0.848;2022-07-04T14:30:26;3.70;;;1.60;;
42742;SDS011;28397;44.552;-0.848;2022-07-04T14:32:52;7.35;;;2.15;;
42742;SDS011;28397;44.552;-0.848;2022-07-04T14:35:18;5.20;;;1.80;;
42742;SDS011;28397;44.552;-0.848;2022-07-04T14:37:44;3.63;;;1.60;;
42742;SDS011;28397;44.552;-0.848;2022-07-04T14:40:10;1.70;;;1.45;;
42742;SDS011;28397;44.552;-0.848;2022-07-04T14:42:36;6.05;;;1.60;;
42742;SDS011;28397;44.552;-0.848;2022-07-04T14:45:02;3.80;;;1.60;;
42742;SDS011;28397;44.552;-0.848;2022-07-04T14:47:28;2.53;;;1.50;;
42742;SDS011;28397;44.552;-0.848;2022-07-04T14:49:56;4.18;;;1.65;;
42742;SDS011;28397;44.552;-0.848;2022-07-04T14:52:22;3.35;;;1.60;;
42742;SDS011;28397;44.552;-0.848;2022-07-04T14:54:48;4.03;;;1.58;;